sensor_id;sensor_type;location;lat;lon;timestamp;pressure;altitude;pressure_sealevel;temperature;humidity
81299;BME280;70766;53.170;18.160;2023-12-20T00:01:23;100286.52;;;5.70;100.00
81299;BME280;70766;53.170;18.160;2023-12-20T00:03:52;100282.94;;;5.71;100.00
81299;BME280;70766;53.170;18.160;2023-12-20T00:06:20;100278.89;;;5.71;100.00
81299;BME280;70766;53.170;18.160;2023-12-20T00:08:48;100283.11;;;5.71;100.00
81299;BME280;70766;53.170;18.160;2023-12-20T00:11:17;100283.43;;;5.70;100.00
81299;BME280;70766;53.170;18.160;2023-12-20T00:13:45;100284.59;;;5.71;100.00
81299;BME280;70766;53.170;18.160;2023-12-20T00:16:18;100285.40;;;5.71;100.00
81299;BME280;70766;53.170;18.160;2023-12-20T00:18:47;100282.77;;;5.71;100.00
81299;BME280;70766;53.170;18.160;2023-12-20T00:21:15;100285.84;;;5.72;100.00
81299;BME280;70766;53.170;18.160;2023-12-20T00:23:43;100287.12;;;5.73;100.00
81299;BME280;70766;53.170;18.160;2023-12-20T00:26:11;100285.45;;;5.72;100.00
81299;BME280;70766;53.170;18.160;2023-12-20T00:28:39;100280.58;;;5.73;100.00
81299;BME280;70766;53.170;18.160;2023-12-20T00:31:07;100276.27;;;5.74;100.00
81299;BME280;70766;53.170;18.160;2023-12-20T00:33:36;100271.98;;;5.74;100.00
81299;BME280;70766;53.170;18.160;2023-12-20T00:36:04;100265.83;;;5.73;100.00
81299;BME280;70766;53.170;18.160;2023-12-20T00:38:33;100260.63;;;5.74;100.00
81299;BME280;70766;53.170;18.160;2023-12-20T00:41:01;100263.87;;;5.75;100.00
81299;BME280;70766;53.170;18.160;2023-12-20T00:43:29;100258.95;;;5.74;100.00
81299;BME280;70766;53.170;18.160;2023-12-20T00:45:57;100260.75;;;5.74;100.00
81299;BME280;70766;53.170;18.160;2023-12-20T00:48:28;100265.05;;;5.73;100.00
81299;BME280;70766;53.170;18.160;2023-12-20T00:50:58;100268.52;;;5.73;100.00
81299;BME280;70766;53.170;18.160;2023-12-20T00:53:26;100267.48;;;5.74;100.00
81299;BME280;70766;53.170;18.160;2023-12-20T00:55:55;100268.90;;;5.75;100.00
81299;BME280;70766;53.170;18.160;2023-12-20T00:58:23;100263.52;;;5.75;100.00
81299;BME280;70766;53.170;18.160;2023-12-20T01:00:51;100263.77;;;5.76;100.00
81299;BME280;70766;53.170;18.160;2023-12-20T01:03:20;100263.66;;;5.77;100.00
81299;BME280;70766;53.170;18.160;2023-12-20T01:05:48;100264.31;;;5.78;100.00
81299;BME280;70766;53.170;18.160;2023-12-20T01:08:17;100256.55;;;5.78;100.00
81299;BME280;70766;53.170;18.160;2023-12-20T01:10:45;100250.55;;;5.78;100.00
81299;BME280;70766;53.170;18.160;2023-12-20T01:13:15;100251.20;;;5.77;100.00
81299;BME280;70766;53.170;18.160;2023-12-20T01:15:43;100249.94;;;5.79;100.00
81299;BME280;70766;53.170;18.160;2023-12-20T01:18:11;100243.41;;;5.80;100.00
81299;BME280;70766;53.170;18.160;2023-12-20T01:20:40;100243.42;;;5.80;100.00
81299;BME280;70766;53.170;18.160;2023-12-20T01:23:08;100240.14;;;5.80;100.00
81299;BME280;70766;53.170;18.160;2023-12-20T01:25:36;100240.54;;;5.80;100.00
81299;BME280;70766;53.170;18.160;2023-12-20T01:28:04;100238.73;;;5.80;100.00
81299;BME280;70766;53.170;18.160;2023-12-20T01:30:32;100235.98;;;5.81;100.00
81299;BME280;70766;53.170;18.160;2023-12-20T01:33:00;100240.63;;;5.81;100.00
81299;BME280;70766;53.170;18.160;2023-12-20T01:35:29;100237.96;;;5.81;100.00
81299;BME280;70766;53.170;18.160;2023-12-20T01:37:57;100234.66;;;5.82;100.00
81299;BME280;70766;53.170;18.160;2023-12-20T01:40:25;100230.33;;;5.81;100.00
81299;BME280;70766;53.170;18.160;2023-12-20T01:43:06;100228.84;;;5.81;100.00
81299;BME280;70766;53.170;18.160;2023-12-20T01:45:36;100221.88;;;5.82;100.00
81299;BME280;70766;53.170;18.160;2023-12-20T01:48:05;100216.58;;;5.81;100.00
81299;BME280;70766;53.170;18.160;2023-12-20T01:50:35;100216.62;;;5.83;100.00
81299;BME280;70766;53.170;18.160;2023-12-20T01:53:07;100215.79;;;5.83;100.00
81299;BME280;70766;53.170;18.160;2023-12-20T01:55:39;100214.44;;;5.83;100.00
81299;BME280;70766;53.170;18.160;2023-12-20T01:58:09;100212.09;;;5.84;100.00
81299;BME280;70766;53.170;18.160;2023-12-20T02:00:38;100213.31;;;5.85;100.00
81299;BME280;70766;53.170;18.160;2023-12-20T02:03:06;100209.06;;;5.85;100.00
81299;BME280;70766;53.170;18.160;2023-12-20T02:05:37;100208.95;;;5.85;100.00
81299;BME280;70766;53.170;18.160;2023-12-20T02:08:06;100211.04;;;5.84;100.00
81299;BME280;70766;53.170;18.160;2023-12-20T02:10:35;100212.59;;;5.85;100.00
81299;BME280;70766;53.170;18.160;2023-12-20T02:13:03;100212.13;;;5.84;100.00
81299;BME280;70766;53.170;18.160;2023-12-20T02:15:32;100212.27;;;5.84;100.00
81299;BME280;70766;53.170;18.160;2023-12-20T02:18:01;100209.40;;;5.86;100.00
81299;BME280;70766;53.170;18.160;2023-12-20T02:20:29;100196.52;;;5.84;100.00
81299;BME280;70766;53.170;18.160;2023-12-20T02:22:57;100194.32;;;5.85;100.00
81299;BME280;70766;53.170;18.160;2023-12-20T02:25:25;100192.80;;;5.84;100.00
81299;BME280;70766;53.170;18.160;2023-12-20T02:27:53;100194.60;;;5.84;100.00
81299;BME280;70766;53.170;18.160;2023-12-20T02:30:21;100194.48;;;5.84;100.00
81299;BME280;70766;53.170;18.160;2023-12-20T02:32:50;100189.11;;;5.84;100.00
81299;BME280;70766;53.170;18.160;2023-12-20T02:35:19;100189.11;;;5.84;100.00
81299;BME280;70766;53.170;18.160;2023-12-20T02:37:47;100189.73;;;5.84;100.00
81299;BME280;70766;53.170;18.160;2023-12-20T02:40:15;100183.46;;;5.84;100.00
81299;BME280;70766;53.170;18.160;2023-12-20T02:42:44;100186.21;;;5.83;100.00
81299;BME280;70766;53.170;18.160;2023-12-20T02:45:12;100186.02;;;5.83;100.00
81299;BME280;70766;53.170;18.160;2023-12-20T02:47:40;100180.19;;;5.83;100.00
81299;BME280;70766;53.170;18.160;2023-12-20T02:50:08;100179.83;;;5.83;100.00
81299;BME280;70766;53.170;18.160;2023-12-20T02:52:36;100181.83;;;5.84;100.00
81299;BME280;70766;53.170;18.160;2023-12-20T02:55:05;100184.11;;;5.84;100.00
81299;BME280;70766;53.170;18.160;2023-12-20T02:57:33;100178.35;;;5.83;100.00
81299;BME280;70766;53.170;18.160;2023-12-20T03:00:04;100178.30;;;5.84;100.00
81299;BME280;70766;53.170;18.160;2023-12-20T03:02:33;100179.21;;;5.84;100.00
81299;BME280;70766;53.170;18.160;2023-12-20T03:05:01;100179.20;;;5.84;100.00
81299;BME280;70766;53.170;18.160;2023-12-20T03:07:29;100173.52;;;5.84;100.00
81299;BME280;70766;53.170;18.160;2023-12-20T03:09:58;100167.13;;;5.82;100.00
81299;BME280;70766;53.170;18.160;2023-12-20T03:12:46;100162.83;;;5.83;100.00
81299;BME280;70766;53.170;18.160;2023-12-20T03:15:14;100166.20;;;5.81;100.00
81299;BME280;70766;53.170;18.160;2023-12-20T03:17:42;100166.34;;;5.83;100.00
81299;BME280;70766;53.170;18.160;2023-12-20T03:20:11;100159.06;;;5.81;100.00
81299;BME280;70766;53.170;18.160;2023-12-20T03:22:39;100165.20;;;5.82;100.00
81299;BME280;70766;53.170;18.160;2023-12-20T03:25:08;100166.16;;;5.81;100.00
81299;BME280;70766;53.170;18.160;2023-12-20T03:27:39;100170.73;;;5.80;100.00
81299;BME280;70766;53.170;18.160;2023-12-20T03:30:08;100170.91;;;5.80;100.00
81299;BME280;70766;53.170;18.160;2023-12-20T03:32:38;100166.52;;;5.80;100.00
81299;BME280;70766;53.170;18.160;2023-12-20T03:35:06;100166.70;;;5.81;100.00
81299;BME280;70766;53.170;18.160;2023-12-20T03:37:34;100162.71;;;5.81;100.00
81299;BME280;70766;53.170;18.160;2023-12-20T03:40:03;100155.46;;;5.80;100.00
81299;BME280;70766;53.170;18.160;2023-12-20T03:42:31;100158.77;;;5.81;100.00
81299;BME280;70766;53.170;18.160;2023-12-20T03:44:59;100158.11;;;5.80;100.00
81299;BME280;70766;53.170;18.160;2023-12-20T03:47:27;100161.34;;;5.82;100.00
81299;BME280;70766;53.170;18.160;2023-12-20T03:49:55;100161.02;;;5.80;100.00
81299;BME280;70766;53.170;18.160;2023-12-20T03:52:24;100158.14;;;5.82;100.00
81299;BME280;70766;53.170;18.160;2023-12-20T03:54:52;100158.23;;;5.81;100.00
81299;BME280;70766;53.170;18.160;2023-12-20T03:57:20;100160.87;;;5.81;100.00
81299;BME280;70766;53.170;18.160;2023-12-20T03:59:48;100160.77;;;5.82;100.00
81299;BME280;70766;53.170;18.160;2023-12-20T04:02:16;100162.34;;;5.82;100.00
81299;BME280;70766;53.170;18.160;2023-12-20T04:04:45;100157.48;;;5.84;100.00
81299;BME280;70766;53.170;18.160;2023-12-20T04:07:14;100159.26;;;5.84;100.00
81299;BME280;70766;53.170;18.160;2023-12-20T04:09:42;100160.36;;;5.84;100.00
81299;BME280;70766;53.170;18.160;2023-12-20T04:12:11;100158.42;;;5.84;100.00
81299;BME280;70766;53.170;18.160;2023-12-20T04:14:39;100160.36;;;5.83;100.00
81299;BME280;70766;53.170;18.160;2023-12-20T04:17:07;100160.90;;;5.82;100.00
81299;BME280;70766;53.170;18.160;2023-12-20T04:19:35;100158.53;;;5.80;100.00
81299;BME280;70766;53.170;18.160;2023-12-20T04:22:03;100159.93;;;5.79;100.00
81299;BME280;70766;53.170;18.160;2023-12-20T04:24:31;100153.38;;;5.78;100.00
81299;BME280;70766;53.170;18.160;2023-12-20T04:27:00;100156.08;;;5.77;100.00
81299;BME280;70766;53.170;18.160;2023-12-20T04:29:28;100153.45;;;5.76;100.00
81299;BME280;70766;53.170;18.160;2023-12-20T04:31:56;100158.55;;;5.75;100.00
81299;BME280;70766;53.170;18.160;2023-12-20T04:34:24;100163.46;;;5.73;100.00
81299;BME280;70766;53.170;18.160;2023-12-20T04:36:53;100162.92;;;5.71;100.00
81299;BME280;70766;53.170;18.160;2023-12-20T04:39:21;100163.09;;;5.72;100.00
81299;BME280;70766;53.170;18.160;2023-12-20T04:41:49;100161.04;;;5.71;100.00
81299;BME280;70766;53.170;18.160;2023-12-20T04:44:18;100162.35;;;5.70;100.00
81299;BME280;70766;53.170;18.160;2023-12-20T04:46:46;100168.13;;;5.70;100.00
81299;BME280;70766;53.170;18.160;2023-12-20T04:49:14;100165.48;;;5.68;100.00
81299;BME280;70766;53.170;18.160;2023-12-20T04:51:42;100163.93;;;5.68;100.00
81299;BME280;70766;53.170;18.160;2023-12-20T04:54:10;100171.34;;;5.68;100.00
81299;BME280;70766;53.170;18.160;2023-12-20T04:56:39;100178.02;;;5.69;100.00
81299;BME280;70766;53.170;18.160;2023-12-20T04:59:07;100170.81;;;5.67;100.00
81299;BME280;70766;53.170;18.160;2023-12-20T05:01:35;100171.45;;;5.66;100.00
81299;BME280;70766;53.170;18.160;2023-12-20T05:04:03;100175.97;;;5.66;100.00
81299;BME280;70766;53.170;18.160;2023-12-20T05:06:31;100180.19;;;5.65;100.00
81299;BME280;70766;53.170;18.160;2023-12-20T05:08:59;100179.41;;;5.64;100.00
81299;BME280;70766;53.170;18.160;2023-12-20T05:11:27;100185.59;;;5.63;100.00
81299;BME280;70766;53.170;18.160;2023-12-20T05:13:56;100178.21;;;5.62;100.00
81299;BME280;70766;53.170;18.160;2023-12-20T05:16:24;100178.88;;;5.61;100.00
81299;BME280;70766;53.170;18.160;2023-12-20T05:18:52;100176.52;;;5.61;100.00
81299;BME280;70766;53.170;18.160;2023-12-20T05:21:20;100174.17;;;5.60;100.00
81299;BME280;70766;53.170;18.160;2023-12-20T05:23:48;100171.05;;;5.59;100.00
81299;BME280;70766;53.170;18.160;2023-12-20T05:26:17;100170.73;;;5.55;100.00
81299;BME280;70766;53.170;18.160;2023-12-20T05:28:45;100169.80;;;5.53;100.00
81299;BME280;70766;53.170;18.160;2023-12-20T05:31:13;100174.59;;;5.51;100.00
81299;BME280;70766;53.170;18.160;2023-12-20T05:33:41;100172.26;;;5.46;100.00
81299;BME280;70766;53.170;18.160;2023-12-20T05:36:09;100171.31;;;5.41;100.00
81299;BME280;70766;53.170;18.160;2023-12-20T05:38:39;100171.67;;;5.38;100.00
81299;BME280;70766;53.170;18.160;2023-12-20T05:41:07;100182.45;;;5.34;100.00
81299;BME280;70766;53.170;18.160;2023-12-20T05:43:35;100180.52;;;5.30;100.00
81299;BME280;70766;53.170;18.160;2023-12-20T05:46:03;100177.79;;;5.25;100.00
81299;BME280;70766;53.170;18.160;2023-12-20T05:48:31;100173.33;;;5.20;100.00
81299;BME280;70766;53.170;18.160;2023-12-20T05:50:59;100178.69;;;5.15;100.00
81299;BME280;70766;53.170;18.160;2023-12-20T05:53:27;100177.42;;;5.08;100.00
81299;BME280;70766;53.170;18.160;2023-12-20T05:55:56;100173.92;;;5.00;100.00
81299;BME280;70766;53.170;18.160;2023-12-20T05:58:24;100173.95;;;4.91;100.00
81299;BME280;70766;53.170;18.160;2023-12-20T06:00:52;100176.30;;;4.80;100.00
81299;BME280;70766;53.170;18.160;2023-12-20T06:03:20;100178.39;;;4.68;100.00
81299;BME280;70766;53.170;18.160;2023-12-20T06:05:48;100178.08;;;4.56;100.00
81299;BME280;70766;53.170;18.160;2023-12-20T06:08:16;100181.02;;;4.44;100.00
81299;BME280;70766;53.170;18.160;2023-12-20T06:10:44;100175.06;;;4.34;100.00
81299;BME280;70766;53.170;18.160;2023-12-20T06:13:12;100166.67;;;4.24;100.00
81299;BME280;70766;53.170;18.160;2023-12-20T06:15:41;100165.42;;;4.15;100.00
81299;BME280;70766;53.170;18.160;2023-12-20T06:18:10;100161.90;;;4.07;100.00
81299;BME280;70766;53.170;18.160;2023-12-20T06:20:38;100166.07;;;3.98;100.00
81299;BME280;70766;53.170;18.160;2023-12-20T06:23:06;100174.06;;;3.91;100.00
81299;BME280;70766;53.170;18.160;2023-12-20T06:25:35;100173.42;;;3.85;100.00
81299;BME280;70766;53.170;18.160;2023-12-20T06:28:04;100171.20;;;3.80;100.00
81299;BME280;70766;53.170;18.160;2023-12-20T06:30:32;100175.38;;;3.76;100.00
81299;BME280;70766;53.170;18.160;2023-12-20T06:33:01;100176.42;;;3.73;100.00
81299;BME280;70766;53.170;18.160;2023-12-20T06:35:29;100181.58;;;3.70;100.00
81299;BME280;70766;53.170;18.160;2023-12-20T06:37:59;100183.55;;;3.65;100.00
81299;BME280;70766;53.170;18.160;2023-12-20T06:40:29;100183.20;;;3.61;100.00
81299;BME280;70766;53.170;18.160;2023-12-20T06:42:57;100187.58;;;3.57;100.00
81299;BME280;70766;53.170;18.160;2023-12-20T06:45:39;100187.98;;;3.54;100.00
81299;BME280;70766;53.170;18.160;2023-12-20T06:48:07;100186.55;;;3.51;100.00
81299;BME280;70766;53.170;18.160;2023-12-20T06:50:35;100186.73;;;3.49;100.00
81299;BME280;70766;53.170;18.160;2023-12-20T06:53:07;100182.05;;;3.45;100.00
81299;BME280;70766;53.170;18.160;2023-12-20T06:55:36;100176.40;;;3.42;100.00
81299;BME280;70766;53.170;18.160;2023-12-20T06:58:05;100172.57;;;3.42;100.00
81299;BME280;70766;53.170;18.160;2023-12-20T07:00:34;100176.52;;;3.42;100.00
81299;BME280;70766;53.170;18.160;2023-12-20T07:03:03;100178.05;;;3.39;100.00
81299;BME280;70766;53.170;18.160;2023-12-20T07:05:31;100180.02;;;3.39;100.00
81299;BME280;70766;53.170;18.160;2023-12-20T07:08:01;100184.42;;;3.39;100.00
81299;BME280;70766;53.170;18.160;2023-12-20T07:10:29;100188.17;;;3.40;100.00
81299;BME280;70766;53.170;18.160;2023-12-20T07:12:57;100186.95;;;3.40;100.00
81299;BME280;70766;53.170;18.160;2023-12-20T07:15:25;100193.89;;;3.40;100.00
81299;BME280;70766;53.170;18.160;2023-12-20T07:17:55;100194.55;;;3.40;100.00
81299;BME280;70766;53.170;18.160;2023-12-20T07:20:23;100191.52;;;3.42;100.00
81299;BME280;70766;53.170;18.160;2023-12-20T07:22:51;100191.58;;;3.43;100.00
81299;BME280;70766;53.170;18.160;2023-12-20T07:25:19;100198.23;;;3.42;100.00
81299;BME280;70766;53.170;18.160;2023-12-20T07:27:48;100198.92;;;3.41;100.00
81299;BME280;70766;53.170;18.160;2023-12-20T07:30:17;100200.02;;;3.40;100.00
81299;BME280;70766;53.170;18.160;2023-12-20T07:32:45;100203.33;;;3.41;100.00
81299;BME280;70766;53.170;18.160;2023-12-20T07:35:13;100206.83;;;3.40;100.00
81299;BME280;70766;53.170;18.160;2023-12-20T07:37:41;100203.02;;;3.39;100.00
81299;BME280;70766;53.170;18.160;2023-12-20T07:40:10;100200.13;;;3.39;100.00
81299;BME280;70766;53.170;18.160;2023-12-20T07:42:39;100200.67;;;3.41;100.00
81299;BME280;70766;53.170;18.160;2023-12-20T07:45:07;100200.89;;;3.42;100.00
81299;BME280;70766;53.170;18.160;2023-12-20T07:47:35;100199.44;;;3.45;100.00
81299;BME280;70766;53.170;18.160;2023-12-20T07:50:03;100193.02;;;3.47;100.00
81299;BME280;70766;53.170;18.160;2023-12-20T07:52:32;100190.34;;;3.49;100.00
81299;BME280;70766;53.170;18.160;2023-12-20T07:55:00;100190.32;;;3.53;100.00
81299;BME280;70766;53.170;18.160;2023-12-20T07:57:29;100189.93;;;3.57;100.00
81299;BME280;70766;53.170;18.160;2023-12-20T07:59:58;100185.07;;;3.62;100.00
81299;BME280;70766;53.170;18.160;2023-12-20T08:02:27;100182.83;;;3.67;100.00
81299;BME280;70766;53.170;18.160;2023-12-20T08:04:55;100187.03;;;3.72;100.00
81299;BME280;70766;53.170;18.160;2023-12-20T08:07:23;100194.16;;;3.78;100.00
81299;BME280;70766;53.170;18.160;2023-12-20T08:09:52;100192.55;;;3.82;100.00
81299;BME280;70766;53.170;18.160;2023-12-20T08:12:22;100197.07;;;3.86;100.00
81299;BME280;70766;53.170;18.160;2023-12-20T08:14:51;100194.16;;;3.90;100.00
81299;BME280;70766;53.170;18.160;2023-12-20T08:17:19;100184.38;;;3.93;100.00
81299;BME280;70766;53.170;18.160;2023-12-20T08:19:47;100184.13;;;3.99;100.00
81299;BME280;70766;53.170;18.160;2023-12-20T08:22:15;100179.58;;;4.05;100.00
81299;BME280;70766;53.170;18.160;2023-12-20T08:24:43;100177.89;;;4.09;100.00
81299;BME280;70766;53.170;18.160;2023-12-20T08:27:12;100183.56;;;4.09;100.00
81299;BME280;70766;53.170;18.160;2023-12-20T08:29:40;100183.73;;;4.10;100.00
81299;BME280;70766;53.170;18.160;2023-12-20T08:32:08;100178.36;;;4.13;100.00
81299;BME280;70766;53.170;18.160;2023-12-20T08:34:36;100175.27;;;4.25;100.00
81299;BME280;70766;53.170;18.160;2023-12-20T08:37:04;100179.46;;;4.42;100.00
81299;BME280;70766;53.170;18.160;2023-12-20T08:39:32;100177.23;;;4.60;100.00
81299;BME280;70766;53.170;18.160;2023-12-20T08:42:01;100178.33;;;4.66;100.00
81299;BME280;70766;53.170;18.160;2023-12-20T08:44:29;100184.65;;;4.68;100.00
81299;BME280;70766;53.170;18.160;2023-12-20T08:46:57;100186.37;;;4.67;100.00
81299;BME280;70766;53.170;18.160;2023-12-20T08:49:26;100180.11;;;4.63;100.00
81299;BME280;70766;53.170;18.160;2023-12-20T08:51:54;100178.97;;;4.70;100.00
81299;BME280;70766;53.170;18.160;2023-12-20T08:54:22;100173.42;;;4.71;100.00
81299;BME280;70766;53.170;18.160;2023-12-20T08:56:51;100168.23;;;4.61;100.00
81299;BME280;70766;53.170;18.160;2023-12-20T08:59:20;100171.16;;;4.52;100.00
81299;BME280;70766;53.170;18.160;2023-12-20T09:01:48;100172.36;;;4.45;100.00
81299;BME280;70766;53.170;18.160;2023-12-20T09:04:22;100172.63;;;4.39;100.00
81299;BME280;70766;53.170;18.160;2023-12-20T09:06:50;100173.81;;;4.38;100.00
81299;BME280;70766;53.170;18.160;2023-12-20T09:09:18;100172.45;;;4.37;100.00
81299;BME280;70766;53.170;18.160;2023-12-20T09:11:47;100162.54;;;4.41;100.00
81299;BME280;70766;53.170;18.160;2023-12-20T09:14:18;100158.19;;;4.48;100.00
81299;BME280;70766;53.170;18.160;2023-12-20T09:16:47;100148.88;;;4.71;100.00
81299;BME280;70766;53.170;18.160;2023-12-20T09:19:15;100156.73;;;5.08;100.00
81299;BME280;70766;53.170;18.160;2023-12-20T09:21:43;100157.02;;;5.04;100.00
81299;BME280;70766;53.170;18.160;2023-12-20T09:24:11;100163.54;;;5.01;100.00
81299;BME280;70766;53.170;18.160;2023-12-20T09:26:39;100157.11;;;5.14;100.00
81299;BME280;70766;53.170;18.160;2023-12-20T09:29:08;100147.21;;;5.27;100.00
81299;BME280;70766;53.170;18.160;2023-12-20T09:31:37;100150.04;;;5.34;100.00
81299;BME280;70766;53.170;18.160;2023-12-20T09:34:05;100143.64;;;5.49;100.00
81299;BME280;70766;53.170;18.160;2023-12-20T09:36:34;100137.10;;;5.96;100.00
81299;BME280;70766;53.170;18.160;2023-12-20T09:39:04;100135.51;;;6.26;100.00
81299;BME280;70766;53.170;18.160;2023-12-20T09:41:36;100133.82;;;6.05;100.00
81299;BME280;70766;53.170;18.160;2023-12-20T09:44:07;100137.98;;;6.02;100.00
81299;BME280;70766;53.170;18.160;2023-12-20T09:46:38;100136.63;;;5.84;100.00
81299;BME280;70766;53.170;18.160;2023-12-20T09:49:11;100137.49;;;5.73;100.00
81299;BME280;70766;53.170;18.160;2023-12-20T09:51:39;100132.23;;;5.61;100.00
81299;BME280;70766;53.170;18.160;2023-12-20T09:54:09;100119.50;;;5.56;100.00
81299;BME280;70766;53.170;18.160;2023-12-20T09:56:38;100113.48;;;5.50;100.00
81299;BME280;70766;53.170;18.160;2023-12-20T09:59:06;100116.46;;;5.60;100.00
81299;BME280;70766;53.170;18.160;2023-12-20T10:01:35;100108.11;;;6.00;100.00
81299;BME280;70766;53.170;18.160;2023-12-20T10:04:12;100098.79;;;6.31;100.00
81299;BME280;70766;53.170;18.160;2023-12-20T10:06:56;100092.04;;;6.69;100.00
81299;BME280;70766;53.170;18.160;2023-12-20T10:09:26;100085.11;;;6.95;100.00
81299;BME280;70766;53.170;18.160;2023-12-20T10:11:57;100086.63;;;6.96;100.00
81299;BME280;70766;53.170;18.160;2023-12-20T10:14:25;100083.58;;;7.01;100.00
81299;BME280;70766;53.170;18.160;2023-12-20T10:16:53;100076.95;;;7.40;100.00
81299;BME280;70766;53.170;18.160;2023-12-20T10:19:30;100077.03;;;7.79;100.00
81299;BME280;70766;53.170;18.160;2023-12-20T10:22:04;100075.13;;;8.11;100.00
81299;BME280;70766;53.170;18.160;2023-12-20T10:24:33;100067.30;;;8.34;100.00
81299;BME280;70766;53.170;18.160;2023-12-20T10:27:05;100060.79;;;8.38;100.00
81299;BME280;70766;53.170;18.160;2023-12-20T10:29:37;100055.71;;;8.18;100.00
81299;BME280;70766;53.170;18.160;2023-12-20T10:32:32;100054.86;;;7.73;100.00
81299;BME280;70766;53.170;18.160;2023-12-20T10:35:00;100051.70;;;7.39;100.00
81299;BME280;70766;53.170;18.160;2023-12-20T10:37:29;100046.83;;;7.09;100.00
81299;BME280;70766;53.170;18.160;2023-12-20T10:39:59;100046.83;;;6.64;100.00
81299;BME280;70766;53.170;18.160;2023-12-20T10:42:31;100045.31;;;6.44;100.00
81299;BME280;70766;53.170;18.160;2023-12-20T10:45:01;100042.98;;;6.34;100.00
81299;BME280;70766;53.170;18.160;2023-12-20T10:47:31;100039.71;;;6.23;100.00
81299;BME280;70766;53.170;18.160;2023-12-20T10:50:01;100031.46;;;6.16;100.00
81299;BME280;70766;53.170;18.160;2023-12-20T10:52:32;100030.70;;;6.10;100.00
81299;BME280;70766;53.170;18.160;2023-12-20T10:55:00;100027.90;;;6.03;100.00
81299;BME280;70766;53.170;18.160;2023-12-20T10:57:29;100024.43;;;5.94;100.00
81299;BME280;70766;53.170;18.160;2023-12-20T11:00:01;100018.55;;;5.97;100.00
81299;BME280;70766;53.170;18.160;2023-12-20T11:02:32;100011.22;;;5.88;100.00
81299;BME280;70766;53.170;18.160;2023-12-20T11:07:36;100003.98;;;5.76;100.00
81299;BME280;70766;53.170;18.160;2023-12-20T11:10:17;100001.16;;;5.72;100.00
81299;BME280;70766;53.170;18.160;2023-12-20T11:12:47;99992.15;;;5.65;100.00
81299;BME280;70766;53.170;18.160;2023-12-20T11:15:17;99981.61;;;5.64;100.00
81299;BME280;70766;53.170;18.160;2023-12-20T11:17:45;99973.20;;;5.61;100.00
81299;BME280;70766;53.170;18.160;2023-12-20T11:20:35;99972.61;;;5.58;100.00
81299;BME280;70766;53.170;18.160;2023-12-20T11:23:04;99970.10;;;5.50;100.00
81299;BME280;70766;53.170;18.160;2023-12-20T11:26:05;99970.30;;;5.45;100.00
81299;BME280;70766;53.170;18.160;2023-12-20T11:28:33;99966.34;;;5.41;100.00
81299;BME280;70766;53.170;18.160;2023-12-20T11:31:02;99960.58;;;5.39;100.00
81299;BME280;70766;53.170;18.160;2023-12-20T11:33:36;99957.73;;;5.35;100.00
81299;BME280;70766;53.170;18.160;2023-12-20T11:36:13;99949.52;;;5.30;100.00
81299;BME280;70766;53.170;18.160;2023-12-20T11:39:09;99946.19;;;5.31;100.00
81299;BME280;70766;53.170;18.160;2023-12-20T11:41:45;99940.26;;;5.32;100.00
81299;BME280;70766;53.170;18.160;2023-12-20T11:44:13;99933.83;;;5.32;100.00
81299;BME280;70766;53.170;18.160;2023-12-20T11:46:48;99929.20;;;5.34;100.00
81299;BME280;70766;53.170;18.160;2023-12-20T11:49:17;99928.05;;;5.34;100.00
81299;BME280;70766;53.170;18.160;2023-12-20T11:51:49;99924.71;;;5.39;100.00
81299;BME280;70766;53.170;18.160;2023-12-20T11:54:18;99911.12;;;5.37;100.00
81299;BME280;70766;53.170;18.160;2023-12-20T11:56:47;99917.83;;;5.40;100.00
81299;BME280;70766;53.170;18.160;2023-12-20T11:59:15;99912.64;;;5.37;100.00
81299;BME280;70766;53.170;18.160;2023-12-20T12:01:51;99906.42;;;5.34;100.00
81299;BME280;70766;53.170;18.160;2023-12-20T12:04:20;99902.84;;;5.32;100.00
81299;BME280;70766;53.170;18.160;2023-12-20T12:06:48;99897.58;;;5.28;100.00
81299;BME280;70766;53.170;18.160;2023-12-20T12:09:16;99888.88;;;5.24;100.00
81299;BME280;70766;53.170;18.160;2023-12-20T12:11:45;99887.66;;;5.24;100.00
81299;BME280;70766;53.170;18.160;2023-12-20T12:14:13;99887.08;;;5.22;100.00
81299;BME280;70766;53.170;18.160;2023-12-20T12:16:44;99893.20;;;5.16;100.00
81299;BME280;70766;53.170;18.160;2023-12-20T12:19:21;99890.08;;;5.13;100.00
81299;BME280;70766;53.170;18.160;2023-12-20T12:21:51;99883.10;;;5.08;100.00
81299;BME280;70766;53.170;18.160;2023-12-20T12:24:20;99875.98;;;5.07;100.00
81299;BME280;70766;53.170;18.160;2023-12-20T12:26:52;99873.04;;;5.04;100.00
81299;BME280;70766;53.170;18.160;2023-12-20T12:29:20;99871.88;;;5.00;100.00
81299;BME280;70766;53.170;18.160;2023-12-20T12:31:48;99867.87;;;4.97;100.00
81299;BME280;70766;53.170;18.160;2023-12-20T12:34:18;99866.16;;;4.95;100.00
81299;BME280;70766;53.170;18.160;2023-12-20T12:36:48;99859.75;;;4.94;100.00
81299;BME280;70766;53.170;18.160;2023-12-20T12:39:17;99854.84;;;4.94;100.00
81299;BME280;70766;53.170;18.160;2023-12-20T12:41:46;99852.05;;;4.93;100.00
81299;BME280;70766;53.170;18.160;2023-12-20T12:44:14;99851.31;;;4.95;100.00
81299;BME280;70766;53.170;18.160;2023-12-20T12:46:48;99844.23;;;4.95;100.00
81299;BME280;70766;53.170;18.160;2023-12-20T12:49:20;99840.98;;;4.93;100.00
81299;BME280;70766;53.170;18.160;2023-12-20T12:51:51;99833.69;;;4.93;100.00
81299;BME280;70766;53.170;18.160;2023-12-20T12:54:19;99835.01;;;4.90;100.00